createdAt,value
2018-08-19T00:01:35.083Z,4.20
2018-08-19T00:03:38.840Z,4.70
2018-08-19T00:05:43.502Z,5.50
2018-08-19T00:07:48.264Z,7.00
2018-08-19T00:09:51.870Z,3.93
2018-08-19T00:11:55.651Z,4.70
2018-08-19T00:13:59.434Z,4.63
2018-08-19T00:16:03.169Z,8.77
2018-08-19T00:18:08.097Z,6.50
2018-08-19T00:20:14.180Z,5.40
2018-08-19T00:22:17.808Z,4.53
2018-08-19T00:24:21.547Z,7.20
2018-08-19T00:26:25.188Z,5.47
2018-08-19T00:28:28.843Z,4.03
2018-08-19T00:30:32.855Z,4.80
2018-08-19T00:32:36.523Z,4.77
2018-08-19T00:34:40.138Z,5.43
2018-08-19T00:36:43.758Z,6.77
2018-08-19T00:38:47.509Z,5.93
2018-08-19T00:40:51.139Z,5.00
2018-08-19T00:42:54.818Z,4.40
2018-08-19T00:44:58.527Z,5.50
2018-08-19T00:47:02.316Z,4.60
2018-08-19T00:49:06.082Z,4.57
2018-08-19T00:51:09.705Z,4.73
2018-08-19T00:53:13.410Z,8.30
2018-08-19T00:55:17.210Z,5.20
2018-08-19T00:57:20.950Z,6.97
2018-08-19T00:59:25.464Z,4.97
2018-08-19T01:01:34.432Z,4.70
2018-08-19T01:03:51.249Z,5.00
2018-08-19T01:05:54.839Z,5.60
2018-08-19T01:07:58.470Z,5.50
2018-08-19T01:10:02.386Z,5.90
2018-08-19T01:12:06.010Z,11.73
2018-08-19T01:14:11.216Z,6.93
2018-08-19T01:16:14.714Z,6.63
2018-08-19T01:18:18.282Z,8.87
2018-08-19T01:20:22.928Z,8.27
2018-08-19T01:22:26.743Z,5.27
2018-08-19T01:24:30.848Z,6.23
2018-08-19T01:26:36.489Z,5.00
2018-08-19T01:28:43.664Z,4.50
2018-08-19T01:30:47.298Z,5.00
2018-08-19T01:32:51.017Z,5.17
2018-08-19T01:34:54.651Z,5.97
2018-08-19T01:36:58.339Z,7.50
2018-08-19T01:39:01.955Z,5.10
2018-08-19T01:41:05.602Z,5.90
2018-08-19T01:43:09.144Z,5.00
2018-08-19T01:45:12.806Z,7.67
2018-08-19T01:47:17.409Z,7.00
2018-08-19T01:49:21.085Z,5.30
2018-08-19T01:51:24.717Z,6.77
2018-08-19T01:53:28.232Z,7.50
2018-08-19T01:55:31.898Z,5.87
2018-08-19T01:57:41.018Z,5.93
2018-08-19T01:59:44.737Z,4.73
2018-08-19T02:01:50.565Z,6.43
2018-08-19T02:03:54.213Z,7.77
2018-08-19T02:05:57.884Z,6.30
2018-08-19T02:08:02.864Z,6.53
2018-08-19T02:10:08.681Z,7.23
2018-08-19T02:12:12.279Z,6.07
2018-08-19T02:14:16.891Z,5.00
2018-08-19T02:16:20.574Z,7.90
2018-08-19T02:18:24.298Z,6.07
2018-08-19T02:20:31.776Z,6.10
2018-08-19T02:22:35.307Z,7.40
2018-08-19T02:24:40.484Z,5.87
2018-08-19T02:26:44.156Z,5.27
2018-08-19T02:28:49.103Z,6.80
2018-08-19T02:30:58.043Z,12.73
2018-08-19T02:33:01.861Z,14.07
2018-08-19T02:35:05.555Z,7.20
2018-08-19T02:37:12.188Z,5.93
2018-08-19T02:39:15.852Z,5.20
2018-08-19T02:41:19.459Z,5.50
2018-08-19T02:43:23.527Z,7.53
2018-08-19T02:45:27.137Z,6.23
2018-08-19T02:47:31.376Z,5.20
2018-08-19T02:49:34.999Z,4.63
2018-08-19T02:51:38.734Z,8.57
2018-08-19T02:53:43.751Z,13.53
2018-08-19T02:55:47.456Z,7.53
2018-08-19T02:57:53.292Z,6.03
2018-08-19T02:59:57.550Z,5.73
2018-08-19T03:02:02.448Z,6.90
2018-08-19T03:04:06.128Z,5.87
2018-08-19T03:06:10.007Z,7.83
2018-08-19T03:08:13.656Z,5.07
2018-08-19T03:10:17.914Z,4.97
2018-08-19T03:12:21.581Z,5.67
2018-08-19T03:14:25.134Z,12.13
2018-08-19T03:16:28.797Z,5.87
2018-08-19T03:18:32.371Z,5.33
2018-08-19T03:20:36.060Z,6.07
2018-08-19T03:22:39.790Z,5.10
2018-08-19T03:24:43.436Z,8.27
2018-08-19T03:26:47.057Z,8.23
2018-08-19T03:28:50.664Z,8.63
2018-08-19T03:31:03.888Z,8.63
2018-08-19T03:33:08.216Z,10.43
2018-08-19T03:35:16.476Z,8.63
2018-08-19T03:37:20.088Z,11.90
2018-08-19T03:39:24.474Z,9.80
2018-08-19T03:41:28.176Z,6.87
2018-08-19T03:43:31.713Z,7.73
2018-08-19T03:45:36.627Z,7.07
2018-08-19T03:47:40.206Z,7.47
2018-08-19T03:49:43.900Z,5.93
2018-08-19T03:51:47.627Z,7.70
2018-08-19T03:53:51.317Z,7.40
2018-08-19T03:55:54.951Z,6.33
2018-08-19T03:58:01.245Z,7.17
2018-08-19T04:00:05.868Z,7.93
2018-08-19T04:02:09.543Z,6.17
2018-08-19T04:04:15.422Z,6.70
2018-08-19T04:06:19.184Z,6.13
2018-08-19T04:08:26.471Z,5.93
2018-08-19T04:10:30.071Z,6.80
2018-08-19T04:12:33.659Z,6.57
2018-08-19T04:14:37.508Z,5.87
2018-08-19T04:16:41.268Z,10.33
2018-08-19T04:18:46.117Z,9.97
2018-08-19T04:20:49.697Z,7.77
2018-08-19T04:22:53.369Z,10.73
2018-08-19T04:24:56.973Z,9.13
2018-08-19T04:27:12.311Z,11.53
2018-08-19T04:29:21.286Z,16.40
2018-08-19T04:31:25.044Z,11.87
2018-08-19T04:33:32.698Z,17.63
2018-08-19T04:35:36.333Z,16.07
2018-08-19T04:37:39.932Z,13.97
2018-08-19T04:39:43.532Z,14.07
2018-08-19T04:41:47.180Z,7.20
2018-08-19T04:43:50.990Z,6.27
2018-08-19T04:45:56.219Z,8.13
2018-08-19T04:47:59.867Z,8.00
2018-08-19T04:50:03.612Z,7.97
2018-08-19T04:52:08.692Z,5.87
2018-08-19T04:54:12.215Z,6.83
2018-08-19T04:56:15.933Z,9.53
2018-08-19T04:58:19.533Z,8.63
2018-08-19T05:00:23.166Z,12.77
2018-08-19T05:02:26.850Z,6.30
2018-08-19T05:04:30.479Z,7.63
2018-08-19T05:06:34.138Z,8.07
2018-08-19T05:08:37.790Z,6.20
2018-08-19T05:10:42.162Z,7.83
2018-08-19T05:12:45.755Z,7.37
2018-08-19T05:14:49.375Z,6.40
2018-08-19T05:16:52.994Z,8.30
2018-08-19T05:19:06.114Z,8.00
2018-08-19T05:21:14.653Z,6.60
2018-08-19T05:23:18.304Z,6.03
2018-08-19T05:25:21.843Z,6.93
2018-08-19T05:27:25.463Z,10.33
2018-08-19T05:29:29.098Z,7.67
2018-08-19T05:31:33.061Z,6.03
2018-08-19T05:33:36.688Z,7.00
2018-08-19T05:35:40.287Z,14.13
2018-08-19T05:37:43.897Z,10.10
2018-08-19T05:39:58.292Z,7.23
2018-08-19T05:42:09.331Z,10.27
2018-08-19T05:44:13.011Z,7.53
2018-08-19T05:46:16.656Z,9.37
2018-08-19T05:48:20.315Z,8.03
2018-08-19T05:50:23.913Z,7.93
2018-08-19T05:52:27.772Z,8.83
2018-08-19T05:54:31.832Z,8.30
2018-08-19T05:56:35.510Z,15.40
2018-08-19T05:58:39.176Z,10.07
2018-08-19T06:00:45.042Z,10.10
2018-08-19T06:02:48.791Z,8.17
2018-08-19T06:04:52.377Z,8.10
2018-08-19T06:07:00.314Z,11.73
2018-08-19T06:09:04.357Z,8.47
2018-08-19T06:11:07.945Z,9.40
2018-08-19T06:13:12.372Z,7.90
2018-08-19T06:15:17.184Z,8.00
2018-08-19T06:17:20.791Z,10.47
2018-08-19T06:19:24.474Z,9.93
2018-08-19T06:21:28.109Z,8.03
2018-08-19T06:23:31.792Z,8.10
2018-08-19T06:25:35.561Z,9.30
2018-08-19T06:27:50.139Z,8.40
2018-08-19T06:29:54.239Z,9.10
2018-08-19T06:31:57.903Z,10.03
2018-08-19T06:34:01.515Z,10.70
2018-08-19T06:36:05.179Z,7.13
2018-08-19T06:38:10.094Z,11.13
2018-08-19T06:40:16.699Z,6.83
2018-08-19T06:42:22.935Z,7.30
2018-08-19T06:44:26.523Z,9.00
2018-08-19T06:46:30.132Z,7.80
2018-08-19T06:48:33.809Z,7.00
2018-08-19T06:50:37.483Z,6.27
2018-08-19T06:52:41.191Z,9.10
2018-08-19T06:54:45.021Z,6.03
2018-08-19T06:56:48.686Z,9.03
2018-08-19T06:58:52.388Z,5.77
2018-08-19T07:00:56.167Z,6.77
2018-08-19T07:03:05.107Z,5.93
2018-08-19T07:05:08.788Z,7.90
2018-08-19T07:07:13.515Z,12.23
2018-08-19T07:09:17.176Z,8.23
2018-08-19T07:11:20.793Z,6.67
2018-08-19T07:13:24.493Z,8.80
2018-08-19T07:15:28.243Z,8.00
2018-08-19T07:17:31.901Z,6.07
2018-08-19T07:19:39.487Z,10.23
2018-08-19T07:21:43.239Z,7.13
2018-08-19T07:23:46.881Z,8.13
2018-08-19T07:25:50.630Z,9.73
2018-08-19T07:27:54.397Z,12.00
2018-08-19T07:29:58.120Z,15.43
2018-08-19T07:32:01.787Z,12.83
2018-08-19T07:34:05.603Z,12.73
2018-08-19T07:36:09.283Z,7.73
2018-08-19T07:38:13.195Z,8.40
2018-08-19T07:40:16.924Z,9.67
2018-08-19T07:42:20.680Z,12.40
2018-08-19T07:44:24.515Z,12.13
2018-08-19T07:46:28.147Z,6.77
2018-08-19T07:48:32.014Z,7.63
2018-08-19T07:50:36.606Z,7.13
2018-08-19T07:52:40.422Z,6.00
2018-08-19T07:54:44.105Z,8.40
2018-08-19T07:56:47.724Z,9.67
2018-08-19T07:58:57.296Z,9.87
2018-08-19T08:01:01.070Z,10.50
2018-08-19T08:03:04.767Z,8.33
2018-08-19T08:05:09.946Z,9.80
2018-08-19T08:07:14.559Z,7.93
2018-08-19T08:09:18.281Z,14.57
2018-08-19T08:11:21.924Z,7.47
2018-08-19T08:13:25.646Z,8.20
2018-08-19T08:15:29.517Z,12.47
2018-08-19T08:17:33.470Z,10.33
2018-08-19T08:19:39.643Z,8.33
2018-08-19T08:21:43.599Z,8.97
2018-08-19T08:23:47.363Z,12.73
2018-08-19T08:25:51.089Z,13.43
2018-08-19T08:27:56.074Z,9.43
2018-08-19T08:30:02.387Z,7.97
2018-08-19T08:32:06.051Z,9.67
2018-08-19T08:34:09.922Z,6.53
2018-08-19T08:36:13.804Z,6.27
2018-08-19T08:38:17.596Z,10.50
2018-08-19T08:40:21.415Z,6.43
2018-08-19T08:42:29.260Z,5.83
2018-08-19T08:44:32.965Z,13.53
2018-08-19T08:46:36.623Z,9.20
2018-08-19T08:48:40.470Z,6.87
2018-08-19T08:50:44.286Z,11.97
2018-08-19T08:52:47.878Z,6.10
2018-08-19T08:54:53.309Z,6.50
2018-08-19T08:56:57.937Z,6.20
2018-08-19T08:59:01.606Z,7.40
2018-08-19T09:01:05.363Z,10.13
2018-08-19T09:03:09.024Z,7.30
2018-08-19T09:05:12.965Z,7.03
2018-08-19T09:07:16.904Z,4.30
2018-08-19T09:09:20.566Z,12.83
2018-08-19T09:11:24.268Z,6.70
2018-08-19T09:13:28.031Z,5.70
2018-08-19T09:15:31.729Z,6.97
2018-08-19T09:17:35.580Z,5.07
2018-08-19T09:19:40.157Z,6.90
2018-08-19T09:21:43.755Z,5.67
2018-08-19T09:23:47.562Z,7.80
2018-08-19T09:25:52.385Z,8.40
2018-08-19T09:27:56.102Z,5.90
2018-08-19T09:30:00.147Z,5.30
2018-08-19T09:32:04.233Z,4.30
2018-08-19T09:34:08.907Z,7.03
2018-08-19T09:36:12.898Z,4.60
2018-08-19T09:38:21.807Z,4.97
2018-08-19T09:40:29.743Z,5.77
2018-08-19T09:42:34.408Z,3.33
2018-08-19T09:44:39.568Z,7.30
2018-08-19T09:46:43.307Z,8.17
2018-08-19T09:48:46.893Z,5.47
2018-08-19T09:50:50.535Z,9.30
2018-08-19T09:52:54.080Z,3.47
2018-08-19T09:55:01.884Z,6.33
2018-08-19T09:57:06.734Z,6.40
2018-08-19T09:59:10.350Z,4.83
2018-08-19T10:01:19.173Z,4.50
2018-08-19T10:03:23.140Z,8.50
2018-08-19T10:05:28.555Z,7.13
2018-08-19T10:07:32.268Z,12.23
2018-08-19T10:09:36.129Z,4.90
2018-08-19T10:11:41.503Z,8.13
2018-08-19T10:13:49.997Z,3.93
2018-08-19T10:15:54.660Z,4.67
2018-08-19T10:17:59.863Z,2.80
2018-08-19T10:20:03.666Z,4.30
2018-08-19T10:22:07.432Z,3.87
2018-08-19T10:24:30.319Z,4.03
2018-08-19T10:26:34.106Z,3.27
2018-08-19T10:28:37.696Z,2.23
2018-08-19T10:30:46.984Z,6.13
2018-08-19T10:33:01.358Z,3.97
2018-08-19T10:35:10.377Z,3.30
2018-08-19T10:37:13.997Z,4.83
2018-08-19T10:39:17.751Z,4.80
2018-08-19T10:41:22.887Z,7.10
2018-08-19T10:43:28.785Z,4.47
2018-08-19T10:45:35.963Z,3.60
2018-08-19T10:47:39.895Z,5.10
2018-08-19T10:49:48.165Z,4.80
2018-08-19T10:51:52.174Z,6.30
2018-08-19T10:53:55.865Z,4.50
2018-08-19T10:56:01.255Z,4.40
2018-08-19T10:58:08.207Z,4.93
2018-08-19T11:00:15.419Z,7.27
2018-08-19T11:02:19.335Z,7.10
2018-08-19T11:04:22.995Z,3.27
2018-08-19T11:06:26.708Z,2.80
2018-08-19T11:08:30.568Z,4.53
2018-08-19T11:10:34.225Z,3.13
2018-08-19T11:12:37.876Z,3.10
2018-08-19T11:14:41.523Z,4.33
2018-08-19T11:16:45.185Z,5.87
2018-08-19T11:18:54.391Z,3.20
2018-08-19T11:21:01.270Z,3.90
2018-08-19T11:23:10.071Z,6.30
2018-08-19T11:25:16.417Z,4.50
2018-08-19T11:27:23.343Z,2.90
2018-08-19T11:29:27.621Z,4.07
2018-08-19T11:31:35.087Z,6.60
2018-08-19T11:33:41.809Z,3.10
2018-08-19T11:35:46.738Z,2.93
2018-08-19T11:37:50.809Z,4.20
2018-08-19T11:39:57.697Z,2.70
2018-08-19T11:42:01.518Z,6.20
2018-08-19T11:44:10.237Z,3.97
2018-08-19T11:46:14.356Z,3.00
2018-08-19T11:48:19.340Z,3.83
2018-08-19T11:50:23.388Z,5.40
2018-08-19T11:52:27.199Z,2.60
2018-08-19T11:54:31.771Z,2.70
2018-08-19T11:56:35.414Z,2.57
2018-08-19T11:58:47.761Z,5.90
2018-08-19T12:00:57.019Z,2.53
2018-08-19T12:03:00.692Z,2.50
2018-08-19T12:05:04.385Z,4.67
2018-08-19T12:07:08.173Z,3.10
2018-08-19T12:09:12.173Z,2.67
2018-08-19T12:11:20.449Z,6.33
2018-08-19T12:13:26.431Z,5.83
2018-08-19T12:15:30.410Z,4.60
2018-08-19T12:17:34.810Z,3.30
2018-08-19T12:19:39.985Z,3.67
2018-08-19T12:21:49.597Z,2.93
2018-08-19T12:24:07.311Z,3.80
2018-08-19T12:26:11.220Z,4.50
2018-08-19T12:28:15.460Z,4.03
2018-08-19T12:30:19.352Z,4.00
2018-08-19T12:32:25.608Z,9.43
2018-08-19T12:34:29.591Z,5.00
2018-08-19T12:36:33.253Z,4.17
2018-08-19T12:38:36.870Z,4.07
2018-08-19T12:40:44.873Z,3.40
2018-08-19T12:42:53.590Z,7.03
2018-08-19T12:45:01.216Z,4.50
2018-08-19T12:47:08.176Z,5.40
2018-08-19T12:49:11.782Z,2.30
2018-08-19T12:51:15.415Z,7.00
2018-08-19T12:53:20.708Z,4.50
2018-08-19T12:55:24.616Z,2.63
2018-08-19T12:57:28.419Z,5.33
2018-08-19T12:59:32.257Z,3.63
2018-08-19T13:01:36.358Z,3.23
2018-08-19T13:03:41.014Z,4.27
2018-08-19T13:05:58.668Z,4.53
2018-08-19T13:08:03.598Z,4.93
2018-08-19T13:10:07.734Z,2.93
2018-08-19T13:12:12.653Z,3.87
2018-08-19T13:14:16.429Z,5.03
2018-08-19T13:16:20.061Z,8.07
2018-08-19T13:18:29.461Z,3.70
2018-08-19T13:20:33.207Z,4.10
2018-08-19T13:22:52.897Z,2.70
2018-08-19T13:24:56.839Z,2.93
2018-08-19T13:27:00.797Z,3.07
2018-08-19T13:29:04.744Z,3.70
2018-08-19T13:31:08.539Z,4.47
2018-08-19T13:33:12.179Z,10.60
2018-08-19T13:35:16.221Z,8.00
2018-08-19T13:37:20.017Z,2.70
2018-08-19T13:39:23.897Z,6.03
2018-08-19T13:41:27.805Z,9.93
2018-08-19T13:43:31.816Z,5.87
2018-08-19T13:45:35.876Z,7.20
2018-08-19T13:47:40.650Z,3.37
2018-08-19T13:49:44.572Z,5.07
2018-08-19T13:51:48.379Z,4.43
2018-08-19T13:53:52.080Z,4.47
2018-08-19T13:55:55.757Z,4.10
2018-08-19T13:57:59.428Z,3.00
2018-08-19T14:00:03.118Z,5.80
2018-08-19T14:02:06.892Z,4.40
2018-08-19T14:04:11.118Z,3.67
2018-08-19T14:06:14.805Z,5.70
2018-08-19T14:08:18.383Z,8.53
2018-08-19T14:10:22.317Z,4.97
2018-08-19T14:12:26.173Z,5.73
2018-08-19T14:14:29.880Z,3.40
2018-08-19T14:16:34.356Z,4.77
2018-08-19T14:18:38.015Z,4.27
2018-08-19T14:20:41.833Z,3.37
2018-08-19T14:22:45.565Z,7.23
2018-08-19T14:24:49.404Z,3.70
2018-08-19T14:26:53.218Z,4.47
2018-08-19T14:28:56.846Z,4.30
2018-08-19T14:31:00.493Z,7.97
2018-08-19T14:33:04.197Z,6.33
2018-08-19T14:35:08.094Z,5.00
2018-08-19T14:37:11.855Z,6.37
2018-08-19T14:39:15.691Z,6.13
2018-08-19T14:41:19.451Z,7.10
2018-08-19T14:43:23.336Z,4.20
2018-08-19T14:45:27.248Z,5.03
2018-08-19T14:47:30.972Z,5.27
2018-08-19T14:49:34.782Z,5.77
2018-08-19T14:51:58.601Z,5.07
2018-08-19T14:54:15.687Z,5.10
2018-08-19T14:56:19.639Z,6.70
2018-08-19T14:58:23.536Z,5.40
2018-08-19T15:00:27.404Z,4.80
2018-08-19T15:02:31.243Z,6.53
2018-08-19T15:04:35.081Z,4.20
2018-08-19T15:06:39.154Z,7.40
2018-08-19T15:08:42.858Z,4.67
2018-08-19T15:10:50.840Z,5.40
2018-08-19T15:12:54.637Z,4.67
2018-08-19T15:14:59.724Z,5.63
2018-08-19T15:17:03.418Z,4.40
2018-08-19T15:19:07.369Z,5.27
2018-08-19T15:21:11.045Z,4.40
2018-08-19T15:23:17.375Z,4.83
2018-08-19T15:25:21.274Z,5.30
2018-08-19T15:27:24.961Z,6.60
2018-08-19T15:29:30.261Z,7.90
2018-08-19T15:31:34.212Z,5.50
2018-08-19T15:33:37.923Z,5.40
2018-08-19T15:35:42.504Z,4.83
2018-08-19T15:37:46.377Z,5.07
2018-08-19T15:39:50.219Z,6.90
2018-08-19T15:41:53.919Z,5.17
2018-08-19T15:43:57.856Z,7.07
2018-08-19T15:46:01.680Z,5.53
2018-08-19T15:48:05.810Z,4.10
2018-08-19T15:50:19.917Z,5.93
2018-08-19T15:52:23.605Z,6.67
2018-08-19T15:54:27.525Z,7.63
2018-08-19T15:56:31.396Z,4.97
2018-08-19T15:58:35.552Z,5.50
2018-08-19T16:00:41.537Z,5.47
2018-08-19T16:02:45.414Z,6.30
2018-08-19T16:04:49.460Z,5.43
2018-08-19T16:06:54.916Z,6.43
2018-08-19T16:08:58.982Z,3.57
2018-08-19T16:11:02.778Z,7.80
2018-08-19T16:13:11.975Z,5.63
2018-08-19T16:15:21.196Z,4.70
2018-08-19T16:17:25.007Z,4.63
2018-08-19T16:19:28.854Z,8.30
2018-08-19T16:21:32.798Z,7.63
2018-08-19T16:23:36.584Z,6.43
2018-08-19T16:25:40.451Z,5.50
2018-08-19T16:27:51.575Z,5.10
2018-08-19T16:29:55.606Z,6.10
2018-08-19T16:31:59.457Z,5.10
2018-08-19T16:34:03.741Z,5.17
2018-08-19T16:36:07.692Z,5.80
2018-08-19T16:38:11.540Z,6.00
2018-08-19T16:40:15.334Z,4.97
2018-08-19T16:42:19.279Z,4.10
2018-08-19T16:44:23.127Z,7.03
2018-08-19T16:46:27.080Z,5.77
2018-08-19T16:48:31.043Z,5.17
2018-08-19T16:50:35.541Z,5.73
2018-08-19T16:52:39.041Z,8.37
2018-08-19T16:54:43.536Z,9.30
2018-08-19T16:56:47.676Z,22.57
2018-08-19T16:58:51.783Z,6.70
2018-08-19T17:00:55.836Z,7.17
2018-08-19T17:02:59.775Z,6.00
2018-08-19T17:05:03.796Z,5.83
2018-08-19T17:07:10.448Z,6.67
2018-08-19T17:09:14.134Z,4.73
2018-08-19T17:11:17.885Z,6.40
2018-08-19T17:13:22.461Z,8.90
2018-08-19T17:15:33.077Z,6.03
2018-08-19T17:17:36.904Z,5.73
2018-08-19T17:19:40.792Z,6.93
2018-08-19T17:21:44.419Z,11.40
2018-08-19T17:23:49.981Z,8.20
2018-08-19T17:25:53.976Z,8.20
2018-08-19T17:28:05.105Z,6.93
2018-08-19T17:30:16.076Z,4.83
2018-08-19T17:32:19.920Z,9.70
2018-08-19T17:34:23.909Z,5.60
2018-08-19T17:36:32.811Z,7.43
2018-08-19T17:38:37.195Z,7.07
2018-08-19T17:40:41.158Z,10.73
2018-08-19T17:42:44.845Z,6.07
2018-08-19T17:44:48.635Z,5.03
2018-08-19T17:46:54.964Z,7.30
2018-08-19T17:48:58.938Z,8.27
2018-08-19T17:51:02.802Z,4.80
2018-08-19T17:53:07.705Z,6.33
2018-08-19T17:55:11.652Z,4.70
2018-08-19T17:57:15.477Z,4.30
2018-08-19T17:59:19.492Z,7.10
2018-08-19T18:01:23.380Z,6.70
2018-08-19T18:03:27.146Z,7.33
2018-08-19T18:05:32.143Z,7.57
2018-08-19T18:07:36.094Z,6.00
2018-08-19T18:09:44.146Z,5.80
2018-08-19T18:11:54.376Z,5.30
2018-08-19T18:13:58.448Z,5.83
2018-08-19T18:16:02.596Z,9.23
2018-08-19T18:18:06.875Z,8.10
2018-08-19T18:20:24.357Z,5.30
2018-08-19T18:22:28.068Z,5.33
2018-08-19T18:24:31.864Z,8.23
2018-08-19T18:26:36.492Z,6.83
2018-08-19T18:28:42.059Z,8.80
2018-08-19T18:30:48.659Z,8.43
2018-08-19T18:32:52.609Z,8.03
2018-08-19T18:34:57.263Z,6.20
2018-08-19T18:37:01.578Z,6.40
2018-08-19T18:39:09.317Z,6.40
2018-08-19T18:41:37.238Z,6.60
2018-08-19T18:43:41.237Z,6.77
2018-08-19T18:45:45.351Z,9.77
2018-08-19T18:47:54.505Z,13.50
2018-08-19T18:49:58.454Z,7.07
2018-08-19T18:52:07.659Z,6.63
2018-08-19T18:54:20.900Z,7.90
2018-08-19T18:56:25.219Z,7.67
2018-08-19T18:58:29.884Z,6.53
2018-08-19T19:00:35.280Z,8.30
2018-08-19T19:02:43.709Z,6.40
2018-08-19T19:04:48.028Z,7.97
2018-08-19T19:06:52.012Z,6.27
2018-08-19T19:08:55.942Z,6.50
2018-08-19T19:11:05.086Z,5.83
2018-08-19T19:13:09.437Z,7.60
2018-08-19T19:15:14.061Z,7.47
2018-08-19T19:17:20.260Z,13.23
2018-08-19T19:19:24.245Z,6.87
2018-08-19T19:21:28.234Z,5.90
2018-08-19T19:23:43.816Z,6.20
2018-08-19T19:25:47.928Z,9.77
2018-08-19T19:27:51.956Z,10.53
2018-08-19T19:30:01.198Z,8.67
2018-08-19T19:32:26.136Z,11.67
2018-08-19T19:34:35.664Z,8.87
2018-08-19T19:36:40.336Z,11.20
2018-08-19T19:38:59.142Z,8.13
2018-08-19T19:41:07.395Z,9.90
2018-08-19T19:43:11.535Z,9.00
2018-08-19T19:45:15.803Z,8.63
2018-08-19T19:47:19.747Z,9.07
2018-08-19T19:49:24.077Z,9.00
2018-08-19T19:51:30.895Z,7.53
2018-08-19T19:53:34.964Z,10.23
2018-08-19T19:55:39.196Z,7.07
2018-08-19T19:57:43.812Z,10.20
2018-08-19T19:59:47.901Z,8.70
2018-08-19T20:01:52.268Z,9.20
2018-08-19T20:03:56.614Z,7.97
2018-08-19T20:06:00.879Z,10.10
2018-08-19T20:08:05.021Z,8.80
2018-08-19T20:10:14.468Z,11.43
2018-08-19T20:12:23.423Z,9.30
2018-08-19T20:14:27.336Z,10.13
2018-08-19T20:16:31.366Z,11.77
2018-08-19T20:18:35.376Z,9.53
2018-08-19T20:20:39.656Z,12.73
2018-08-19T20:22:43.858Z,12.93
2018-08-19T20:24:47.895Z,9.03
2018-08-19T20:26:51.625Z,9.47
2018-08-19T20:28:57.343Z,10.10
2018-08-19T20:31:01.200Z,12.80
2018-08-19T20:33:05.339Z,9.93
2018-08-19T20:35:09.227Z,9.80
2018-08-19T20:37:13.177Z,8.63
2018-08-19T20:39:17.136Z,9.10
2018-08-19T20:41:21.045Z,17.20
2018-08-19T20:43:25.601Z,9.83
2018-08-19T20:45:29.433Z,12.13
2018-08-19T20:47:33.242Z,7.97
2018-08-19T20:49:37.093Z,8.20
2018-08-19T20:51:40.941Z,6.97
2018-08-19T20:53:44.849Z,6.53
2018-08-19T20:55:49.040Z,6.73
2018-08-19T20:57:52.818Z,10.10
2018-08-19T20:59:56.674Z,12.03
2018-08-19T21:02:00.554Z,9.37
2018-08-19T21:04:04.552Z,9.17
2018-08-19T21:06:08.406Z,9.47
2018-08-19T21:08:14.406Z,9.33
2018-08-19T21:10:18.182Z,7.67
2018-08-19T21:12:22.004Z,11.90
2018-08-19T21:14:25.901Z,8.77
2018-08-19T21:16:30.211Z,7.50
2018-08-19T21:18:33.879Z,10.43
2018-08-19T21:20:37.628Z,10.37
2018-08-19T21:22:41.410Z,11.10
2018-08-19T21:24:45.421Z,17.77
2018-08-19T21:26:53.212Z,10.63
2018-08-19T21:29:03.323Z,8.80
2018-08-19T21:31:07.024Z,13.23
2018-08-19T21:33:12.631Z,14.40
2018-08-19T21:35:16.413Z,10.83
2018-08-19T21:37:27.282Z,13.83
2018-08-19T21:39:31.033Z,14.10
2018-08-19T21:41:46.899Z,16.73
2018-08-19T21:43:50.665Z,26.20
2018-08-19T21:45:54.332Z,28.33
2018-08-19T21:47:58.156Z,24.33
2018-08-19T21:50:01.924Z,21.00
2018-08-19T21:52:05.656Z,17.53
2018-08-19T21:54:11.116Z,11.93
2018-08-19T21:56:14.856Z,10.17
2018-08-19T21:58:18.644Z,13.13
2018-08-19T22:00:23.727Z,12.80
2018-08-19T22:02:33.132Z,12.90
2018-08-19T22:04:36.995Z,7.70
2018-08-19T22:06:40.915Z,9.77
2018-08-19T22:08:44.681Z,10.90
2018-08-19T22:10:49.254Z,12.80
2018-08-19T22:12:52.863Z,10.00
2018-08-19T22:14:56.598Z,12.40
2018-08-19T22:17:05.639Z,8.43
2018-08-19T22:19:09.526Z,8.80
2018-08-19T22:21:19.701Z,8.70
2018-08-19T22:23:32.253Z,13.13
2018-08-19T22:25:38.320Z,8.10
2018-08-19T22:27:42.092Z,9.70
2018-08-19T22:29:45.926Z,8.63
2018-08-19T22:31:50.913Z,9.00
2018-08-19T22:33:58.599Z,8.33
2018-08-19T22:36:03.659Z,8.23
2018-08-19T22:38:12.182Z,8.33
2018-08-19T22:40:22.950Z,9.40
2018-08-19T22:42:26.502Z,10.93
2018-08-19T22:44:30.583Z,8.37
2018-08-19T22:46:34.335Z,8.93
2018-08-19T22:48:39.899Z,13.20
2018-08-19T22:50:43.651Z,9.30
2018-08-19T22:52:48.689Z,11.30
2018-08-19T22:54:55.171Z,8.63
2018-08-19T22:56:58.844Z,8.30
2018-08-19T22:59:02.696Z,8.10
2018-08-19T23:01:07.077Z,10.73
2018-08-19T23:03:10.773Z,9.33
2018-08-19T23:05:14.376Z,12.10
2018-08-19T23:07:17.953Z,13.07
2018-08-19T23:09:21.510Z,9.27
2018-08-19T23:11:27.809Z,11.37
2018-08-19T23:13:42.642Z,10.37
2018-08-19T23:15:46.730Z,10.77
2018-08-19T23:17:50.432Z,13.00
2018-08-19T23:19:53.998Z,7.33
2018-08-19T23:21:57.661Z,8.87
2018-08-19T23:24:01.218Z,7.90
2018-08-19T23:26:05.368Z,9.60
2018-08-19T23:28:08.946Z,8.63
2018-08-19T23:30:12.493Z,11.93
2018-08-19T23:32:16.825Z,13.33
2018-08-19T23:34:20.453Z,9.53
2018-08-19T23:36:24.202Z,9.17
2018-08-19T23:38:27.739Z,9.37
2018-08-19T23:40:31.468Z,9.60
2018-08-19T23:42:35.059Z,10.80
2018-08-19T23:44:38.577Z,9.00
2018-08-19T23:46:42.218Z,8.13
2018-08-19T23:48:45.823Z,7.87
2018-08-19T23:50:49.382Z,6.97
2018-08-19T23:52:52.950Z,10.27
2018-08-19T23:54:56.583Z,10.50
2018-08-19T23:57:00.226Z,9.37
2018-08-19T23:59:04.033Z,10.60
